createdAt,value
2022-12-04T00:03:30.300Z,-5.12
2022-12-04T00:04:34.632Z,-5.09
2022-12-04T00:05:38.912Z,-5.17
2022-12-04T00:06:42.963Z,-5.16
2022-12-04T00:07:48.527Z,-5.09
2022-12-04T00:08:53.793Z,-5.07
2022-12-04T00:09:57.900Z,-5.05
2022-12-04T00:11:03.470Z,-5.09
2022-12-04T00:12:07.794Z,-5.06
2022-12-04T00:13:12.000Z,-5.11
2022-12-04T00:14:16.385Z,-5.05
2022-12-04T00:15:25.631Z,-5.05
2022-12-04T00:16:29.114Z,-5.09
2022-12-04T00:17:33.083Z,-5.09
2022-12-04T00:18:37.778Z,-5.15
2022-12-04T00:19:43.366Z,-5.17
2022-12-04T00:20:48.158Z,-5.18
2022-12-04T00:21:53.103Z,-5.16
2022-12-04T00:22:59.849Z,-5.21
2022-12-04T00:24:04.227Z,-5.15
2022-12-04T00:25:08.473Z,-5.17
2022-12-04T00:26:23.027Z,-5.14
2022-12-04T00:27:27.024Z,-5.20
2022-12-04T00:28:31.358Z,-5.20
2022-12-04T00:29:35.319Z,-5.19
2022-12-04T00:30:41.884Z,-5.21
2022-12-04T00:31:46.674Z,-5.20
2022-12-04T00:32:51.025Z,-5.20
2022-12-04T00:33:55.786Z,-5.21
2022-12-04T00:34:59.833Z,-5.23
2022-12-04T00:36:10.152Z,-5.31
2022-12-04T00:37:14.183Z,-5.30
2022-12-04T00:38:18.252Z,-5.29
2022-12-04T00:39:22.401Z,-5.28
2022-12-04T00:40:26.535Z,-5.23
2022-12-04T00:41:36.701Z,-5.24
2022-12-04T00:42:40.837Z,-5.17
2022-12-04T00:43:45.379Z,-5.17
2022-12-04T00:44:49.365Z,-5.21
2022-12-04T00:45:53.511Z,-5.23
2022-12-04T00:46:57.648Z,-5.23
2022-12-04T00:48:03.851Z,-5.28
2022-12-04T00:49:08.049Z,-5.24
2022-12-04T00:50:13.779Z,-5.27
2022-12-04T00:51:20.715Z,-5.29
2022-12-04T00:52:24.872Z,-5.29
2022-12-04T00:53:29.014Z,-5.25
2022-12-04T00:54:33.091Z,-5.23
2022-12-04T00:55:41.035Z,-5.26
2022-12-04T00:56:45.200Z,-5.28
2022-12-04T00:57:50.129Z,-5.34
2022-12-04T00:59:00.122Z,-5.34
2022-12-04T01:00:05.203Z,-5.33
2022-12-04T01:01:15.169Z,-5.36
2022-12-04T01:02:22.244Z,-5.36
2022-12-04T01:03:26.379Z,-5.35
2022-12-04T01:04:30.495Z,-5.36
2022-12-04T01:05:40.505Z,-5.36
2022-12-04T01:06:47.918Z,-5.36
2022-12-04T01:07:52.065Z,-5.38
2022-12-04T01:08:58.134Z,-5.39
2022-12-04T01:10:02.201Z,-5.41
2022-12-04T01:11:06.923Z,-5.41
2022-12-04T01:12:12.996Z,-5.40
2022-12-04T01:13:16.800Z,-5.40
2022-12-04T01:14:20.899Z,-5.35
2022-12-04T01:15:25.014Z,-5.35
2022-12-04T01:16:32.408Z,-5.35
2022-12-04T01:17:36.977Z,-5.43
2022-12-04T01:18:40.839Z,-5.42
2022-12-04T01:19:44.809Z,-5.43
2022-12-04T01:20:53.077Z,-5.41
2022-12-04T01:21:57.085Z,-5.42
2022-12-04T01:23:01.233Z,-5.42
2022-12-04T01:24:06.017Z,-5.48
2022-12-04T01:25:12.024Z,-5.56
2022-12-04T01:26:16.126Z,-5.54
2022-12-04T01:27:20.223Z,-5.52
2022-12-04T01:28:25.465Z,-5.49
2022-12-04T01:29:29.504Z,-5.51
2022-12-04T01:30:33.549Z,-5.50
2022-12-04T01:31:39.185Z,-5.51
2022-12-04T01:32:43.276Z,-5.47
2022-12-04T01:33:48.668Z,-5.46
2022-12-04T01:34:55.390Z,-5.46
2022-12-04T01:36:00.997Z,-5.45
2022-12-04T01:37:05.029Z,-5.47
2022-12-04T01:38:09.059Z,-5.47
2022-12-04T01:39:13.599Z,-5.42
2022-12-04T01:40:18.030Z,-5.47
2022-12-04T01:41:25.356Z,-5.44
2022-12-04T01:42:29.404Z,-5.39
2022-12-04T01:43:35.840Z,-5.34
2022-12-04T01:44:44.728Z,-5.33
2022-12-04T01:45:50.763Z,-5.33
2022-12-04T01:46:57.188Z,-5.36
2022-12-04T01:48:04.142Z,-5.39
2022-12-04T01:49:11.232Z,-5.35
2022-12-04T01:50:15.543Z,-5.35
2022-12-04T01:51:22.587Z,-5.39
2022-12-04T01:52:27.678Z,-5.44
2022-12-04T01:53:33.647Z,-5.43
2022-12-04T01:54:40.705Z,-5.40
2022-12-04T01:55:45.679Z,-5.40
2022-12-04T01:57:01.667Z,-5.41
2022-12-04T01:58:06.675Z,-5.43
2022-12-04T01:59:14.054Z,-5.46
2022-12-04T02:00:18.260Z,-5.42
2022-12-04T02:01:23.067Z,-5.43
2022-12-04T02:02:39.384Z,-5.50
2022-12-04T02:03:43.991Z,-5.50
2022-12-04T02:04:48.885Z,-5.47
2022-12-04T02:05:53.065Z,-5.51
2022-12-04T02:06:57.076Z,-5.48
2022-12-04T02:08:03.711Z,-5.46
2022-12-04T02:09:08.849Z,-5.46
2022-12-04T02:10:14.181Z,-5.46
2022-12-04T02:11:27.349Z,-5.44
2022-12-04T02:12:49.391Z,-5.47
2022-12-04T02:14:08.148Z,-5.46
2022-12-04T02:15:31.348Z,-5.46
2022-12-04T02:16:43.641Z,-5.45
2022-12-04T02:18:25.215Z,-5.46
2022-12-04T02:19:59.335Z,-5.51
2022-12-04T04:49:16.231Z,-6.28
2022-12-04T04:50:24.876Z,-6.30
2022-12-04T04:51:31.447Z,-6.21
2022-12-04T04:52:38.612Z,-6.19
2022-12-04T04:55:16.578Z,-6.18
2022-12-04T04:56:21.707Z,-6.16
2022-12-04T04:57:34.306Z,-6.16
2022-12-04T04:58:38.617Z,-6.21
2022-12-04T04:59:42.612Z,-6.22
2022-12-04T05:01:01.534Z,-6.19
2022-12-04T05:02:05.804Z,-6.25
2022-12-04T05:03:10.771Z,-6.22
2022-12-04T05:04:15.329Z,-6.21
2022-12-04T05:05:19.383Z,-6.19
2022-12-04T05:06:29.851Z,-6.25
2022-12-04T05:07:36.589Z,-6.25
2022-12-04T05:08:41.333Z,-6.22
2022-12-04T05:09:45.402Z,-6.31
2022-12-04T05:10:53.992Z,-6.25
2022-12-04T05:12:05.158Z,-6.28
2022-12-04T05:13:06.112Z,-6.27
2022-12-04T05:14:13.280Z,-6.30
2022-12-04T05:15:23.330Z,-6.38
2022-12-04T05:16:27.718Z,-6.30
2022-12-04T05:17:35.934Z,-6.36
2022-12-04T05:18:43.116Z,-6.32
2022-12-04T05:19:47.266Z,-6.41
2022-12-04T05:20:53.851Z,-6.35
2022-12-04T05:21:57.918Z,-6.29
2022-12-04T05:23:02.133Z,-6.29
2022-12-04T05:24:10.465Z,-6.25
2022-12-04T05:25:37.409Z,-6.21
2022-12-04T05:26:50.666Z,-6.22
2022-12-04T05:28:07.926Z,-6.18
2022-12-04T05:29:17.791Z,-6.22
2022-12-04T05:32:26.939Z,-6.20
2022-12-04T05:33:30.128Z,-6.19
2022-12-04T05:34:34.175Z,-6.20
2022-12-04T05:35:38.224Z,-6.20
2022-12-04T05:36:43.730Z,-6.27
2022-12-04T05:37:47.747Z,-6.28
2022-12-04T05:38:51.685Z,-6.28
2022-12-04T05:39:56.092Z,-6.24
2022-12-04T05:41:03.310Z,-6.26
2022-12-04T05:42:07.489Z,-6.28
2022-12-04T05:43:11.446Z,-6.30
2022-12-04T05:44:15.423Z,-6.27
2022-12-04T05:45:19.598Z,-6.24
2022-12-04T05:46:23.732Z,-6.17
2022-12-04T05:47:27.995Z,-6.19
2022-12-04T05:48:32.520Z,-6.21
2022-12-04T05:49:36.866Z,-6.24
2022-12-04T05:50:41.019Z,-6.22
2022-12-04T05:51:50.972Z,-6.21
2022-12-04T05:52:54.927Z,-6.20
2022-12-04T05:53:59.043Z,-6.18
2022-12-04T05:55:03.133Z,-6.22
2022-12-04T05:56:09.099Z,-6.25
2022-12-04T05:57:13.071Z,-6.28
2022-12-04T05:58:17.221Z,-6.37
2022-12-04T05:59:22.636Z,-6.38
2022-12-04T06:00:28.329Z,-6.43
2022-12-04T06:01:32.542Z,-6.38
2022-12-04T06:02:39.384Z,-6.38
2022-12-04T06:03:45.007Z,-6.40
2022-12-04T06:04:49.213Z,-6.41
2022-12-04T06:05:53.445Z,-6.50
2022-12-04T06:07:08.044Z,-6.48
2022-12-04T06:08:08.960Z,-6.50
2022-12-04T06:09:14.707Z,-6.43
2022-12-04T06:10:19.240Z,-6.43
2022-12-04T06:11:26.412Z,-6.40
2022-12-04T06:12:31.509Z,-6.47
2022-12-04T06:13:35.568Z,-6.47
2022-12-04T06:14:40.143Z,-6.56
2022-12-04T06:15:47.324Z,-6.47
2022-12-04T06:16:53.445Z,-6.57
2022-12-04T06:17:57.491Z,-6.54
2022-12-04T06:19:05.705Z,-6.58
2022-12-04T06:20:13.415Z,-6.56
2022-12-04T06:21:17.988Z,-6.54
2022-12-04T06:22:22.216Z,-6.56
2022-12-04T06:23:26.340Z,-6.54
2022-12-04T06:24:30.634Z,-6.57
2022-12-04T06:25:35.399Z,-6.57
2022-12-04T06:26:57.548Z,-6.57
2022-12-04T06:27:45.137Z,-6.55
2022-12-04T06:28:49.525Z,-6.57
2022-12-04T06:29:56.729Z,-6.62
2022-12-04T06:31:09.043Z,-6.56
2022-12-04T06:32:19.446Z,-6.53
2022-12-04T06:33:18.768Z,-6.47
2022-12-04T06:34:23.075Z,-6.47
2022-12-04T06:35:27.132Z,-6.40
2022-12-04T06:36:31.312Z,-6.38
2022-12-04T06:37:35.326Z,-6.41
2022-12-04T06:38:40.782Z,-6.41
2022-12-04T06:39:44.820Z,-6.41
2022-12-04T06:40:48.877Z,-6.42
2022-12-04T06:41:52.945Z,-6.43
2022-12-04T06:42:57.074Z,-6.47
2022-12-04T06:44:01.117Z,-6.50
2022-12-04T06:45:05.630Z,-6.50
2022-12-04T06:46:13.851Z,-6.48
2022-12-04T06:47:17.907Z,-6.52
2022-12-04T06:48:21.883Z,-6.48
2022-12-04T06:49:25.853Z,-6.51
2022-12-04T06:50:29.844Z,-6.60
2022-12-04T06:51:39.267Z,-6.58
2022-12-04T06:52:43.742Z,-6.67
2022-12-04T06:53:48.416Z,-6.70
2022-12-04T06:54:52.484Z,-6.67
2022-12-04T06:55:58.045Z,-6.63
2022-12-04T06:57:02.011Z,-6.62
2022-12-04T06:58:06.044Z,-6.61
2022-12-04T06:59:11.321Z,-6.68
2022-12-04T07:00:17.352Z,-6.68
2022-12-04T07:01:24.479Z,-6.73
2022-12-04T07:02:31.953Z,-6.73
2022-12-04T07:03:34.603Z,-6.68
2022-12-04T07:04:38.636Z,-6.65
2022-12-04T07:05:42.660Z,-6.62
2022-12-04T07:06:46.740Z,-6.65
2022-12-04T07:07:50.879Z,-6.62
2022-12-04T07:08:57.831Z,-6.61
2022-12-04T07:10:04.499Z,-6.60
2022-12-04T07:11:09.409Z,-6.60
2022-12-04T07:12:13.381Z,-6.60
2022-12-04T07:13:17.341Z,-6.50
2022-12-04T07:14:21.378Z,-6.48
2022-12-04T07:15:25.416Z,-6.57
2022-12-04T07:16:32.812Z,-6.57
2022-12-04T07:17:35.726Z,-6.54
2022-12-04T07:18:41.489Z,-6.52
2022-12-04T07:19:45.489Z,-6.53
2022-12-04T07:20:49.441Z,-6.50
2022-12-04T07:21:53.452Z,-6.53
2022-12-04T07:23:00.265Z,-6.58
2022-12-04T07:24:05.118Z,-6.55
2022-12-04T07:25:09.629Z,-6.57
2022-12-04T07:26:14.469Z,-6.57
2022-12-04T07:27:18.410Z,-6.53
2022-12-04T07:28:22.361Z,-6.57
2022-12-04T07:29:26.510Z,-6.57
2022-12-04T07:30:30.499Z,-6.55
2022-12-04T07:31:34.569Z,-6.54
2022-12-04T07:32:38.933Z,-6.58
2022-12-04T07:33:43.605Z,-6.57
2022-12-04T07:34:47.573Z,-6.57
2022-12-04T07:36:03.726Z,-6.46
2022-12-04T07:37:07.754Z,-6.44
2022-12-04T07:38:13.205Z,-6.44
2022-12-04T07:39:17.155Z,-6.41
2022-12-04T07:40:21.169Z,-6.41
2022-12-04T07:41:26.777Z,-6.30
2022-12-04T07:42:30.961Z,-6.32
2022-12-04T07:43:39.751Z,-6.31
2022-12-04T07:44:43.759Z,-6.28
2022-12-04T07:45:47.759Z,-6.29
2022-12-04T07:46:51.861Z,-6.28
2022-12-04T07:47:55.787Z,-6.21
2022-12-04T07:49:00.162Z,-6.23
2022-12-04T07:50:05.901Z,-6.17
2022-12-04T07:51:23.633Z,-6.13
2022-12-04T07:52:21.052Z,-6.13
2022-12-04T07:53:34.004Z,-6.18
2022-12-04T07:54:38.179Z,-6.15
2022-12-04T07:55:43.937Z,-6.14
2022-12-04T07:56:47.904Z,-6.07
2022-12-04T07:57:52.028Z,-6.08
2022-12-04T07:58:57.639Z,-6.05
2022-12-04T08:00:01.780Z,-6.05
2022-12-04T08:01:11.164Z,-6.01
2022-12-04T08:02:16.916Z,-5.96
2022-12-04T08:03:20.834Z,-5.96
2022-12-04T08:04:26.329Z,-6.00
2022-12-04T08:05:31.978Z,-5.95
2022-12-04T08:06:36.225Z,-5.94
2022-12-04T08:07:40.194Z,-5.95
2022-12-04T08:08:44.312Z,-5.91
2022-12-04T08:09:48.403Z,-5.94
2022-12-04T08:10:52.387Z,-5.91
2022-12-04T08:11:56.429Z,-7.09
2022-12-04T08:13:00.323Z,-5.87
2022-12-04T08:14:06.044Z,-5.80
2022-12-04T08:15:10.662Z,-5.82
2022-12-04T08:16:16.073Z,-5.82
2022-12-04T08:17:22.157Z,-5.75
2022-12-04T08:18:28.292Z,-5.75
2022-12-04T08:19:34.783Z,-5.67
2022-12-04T08:20:41.679Z,-5.66
2022-12-04T08:21:45.752Z,-5.63
2022-12-04T08:22:49.790Z,-5.66
2022-12-04T08:23:58.138Z,-5.59
2022-12-04T08:25:02.264Z,-5.57
2022-12-04T08:26:07.752Z,-5.58
2022-12-04T08:27:11.869Z,-5.52
2022-12-04T08:28:15.862Z,-5.52
2022-12-04T08:29:24.113Z,-5.50
2022-12-04T08:30:28.158Z,-5.50
2022-12-04T08:31:34.895Z,-5.57
2022-12-04T08:32:38.971Z,-5.49
2022-12-04T08:33:45.419Z,-5.50
2022-12-04T08:34:55.710Z,-5.50
2022-12-04T08:35:59.955Z,-5.53
2022-12-04T08:37:04.022Z,-5.50
2022-12-04T08:38:08.028Z,-5.54
2022-12-04T08:39:12.709Z,-5.71
2022-12-04T08:40:16.809Z,-5.75
2022-12-04T08:41:24.460Z,-5.74
2022-12-04T08:42:30.346Z,-5.74
2022-12-04T08:43:35.047Z,-5.75
2022-12-04T08:44:39.099Z,-5.80
2022-12-04T08:45:43.310Z,-5.85
2022-12-04T08:46:47.528Z,-5.86
2022-12-04T08:47:52.676Z,-5.91
2022-12-04T08:48:57.042Z,-5.85
2022-12-04T08:50:01.087Z,-5.82
2022-12-04T08:51:06.157Z,-5.77
2022-12-04T08:52:10.377Z,-5.74
2022-12-04T08:53:14.522Z,-5.79
2022-12-04T08:54:18.603Z,-5.77
2022-12-04T08:55:22.723Z,-5.72
2022-12-04T08:56:28.267Z,-5.72
2022-12-04T08:57:32.294Z,-5.67
2022-12-04T08:58:36.373Z,-5.60
2022-12-04T08:59:40.398Z,-5.62
2022-12-04T09:00:49.236Z,-5.61
2022-12-04T09:01:53.744Z,-5.56
2022-12-04T09:02:58.059Z,-5.59
2022-12-04T09:04:02.123Z,-5.64
2022-12-04T09:05:06.479Z,-5.58
2022-12-04T09:06:12.354Z,-5.58
2022-12-04T09:07:16.326Z,-5.50
2022-12-04T09:08:20.591Z,-5.44
2022-12-04T09:09:24.787Z,-5.47
2022-12-04T09:10:28.924Z,-5.41
2022-12-04T09:11:33.057Z,-5.41
2022-12-04T09:12:37.130Z,-5.42
2022-12-04T09:13:42.613Z,-5.39
2022-12-04T09:14:46.743Z,-5.36
2022-12-04T09:15:50.843Z,-5.31
2022-12-04T09:16:55.680Z,-5.33
2022-12-04T09:17:59.941Z,-5.30
2022-12-04T09:19:04.048Z,-5.29
2022-12-04T09:20:08.904Z,-5.23
2022-12-04T09:21:15.578Z,-5.22
2022-12-04T09:22:19.615Z,-5.20
2022-12-04T09:23:23.951Z,-5.24
2022-12-04T09:24:29.536Z,-5.24
2022-12-04T09:25:36.150Z,-5.21
2022-12-04T09:26:40.277Z,-5.21
2022-12-04T09:27:44.348Z,-5.23
2022-12-04T09:28:49.776Z,-5.15
2022-12-04T09:29:54.276Z,-5.15
2022-12-04T09:31:04.363Z,-5.14
2022-12-04T09:32:08.333Z,-5.14
2022-12-04T09:33:12.512Z,-5.15
2022-12-04T09:34:16.542Z,-5.13
2022-12-04T09:35:20.441Z,-5.09
2022-12-04T09:36:24.584Z,-5.03
2022-12-04T09:37:28.477Z,-5.12
2022-12-04T09:38:32.685Z,-5.12
2022-12-04T09:39:36.640Z,-5.01
2022-12-04T09:40:52.630Z,-4.96
2022-12-04T09:42:16.324Z,-4.90
2022-12-04T09:43:23.321Z,-4.84
2022-12-04T09:44:36.293Z,-4.83
2022-12-04T09:45:49.051Z,-4.80
2022-12-04T09:47:02.406Z,-4.77
2022-12-04T09:48:09.598Z,-4.77
2022-12-04T09:49:16.614Z,-4.76
2022-12-04T09:50:29.418Z,-4.80
2022-12-04T09:51:35.546Z,-4.77
2022-12-04T09:52:48.635Z,-4.76
2022-12-04T09:53:58.364Z,-4.76
2022-12-04T09:55:05.091Z,-4.71
2022-12-04T09:56:12.681Z,-4.73
2022-12-04T09:57:28.718Z,-4.71
2022-12-04T09:58:47.400Z,-4.70
2022-12-04T09:59:53.494Z,-4.70
2022-12-04T10:01:00.666Z,-4.67
2022-12-04T10:02:24.059Z,-4.75
2022-12-04T10:03:30.443Z,-4.81
2022-12-04T10:04:34.557Z,-4.82
2022-12-04T10:05:41.483Z,-4.77
2022-12-04T10:07:06.169Z,-4.75
2022-12-04T10:08:29.657Z,-4.75
2022-12-04T14:26:00.152Z,-5.21
2022-12-04T14:27:34.150Z,-5.16
2022-12-04T14:28:43.581Z,-5.12
2022-12-04T14:29:52.191Z,-5.13
2022-12-04T14:31:29.316Z,-5.09
2022-12-04T14:32:37.977Z,-5.09
2022-12-04T14:33:54.296Z,-5.13
2022-12-04T14:34:59.578Z,-5.16
2022-12-04T14:36:11.410Z,-5.15
2022-12-04T14:37:29.714Z,-5.19
2022-12-04T14:38:36.202Z,-5.18
2022-12-04T14:56:28.678Z,-5.59
2022-12-04T14:57:56.305Z,-5.58
2022-12-04T14:59:03.247Z,-5.57
2022-12-04T15:00:13.196Z,-5.99
2022-12-04T15:01:29.325Z,-5.54
2022-12-04T15:02:43.924Z,-5.50
2022-12-04T15:03:50.907Z,-5.50
2022-12-04T15:04:55.525Z,-5.47
2022-12-04T15:06:17.088Z,-5.47
2022-12-04T15:07:25.829Z,-5.46
2022-12-04T15:08:30.004Z,-5.45
2022-12-04T15:09:36.757Z,-5.46
2022-12-04T15:10:43.863Z,-5.46
2022-12-04T15:13:05.797Z,-5.47
2022-12-04T15:14:14.520Z,-5.48
2022-12-04T15:15:27.508Z,-5.48
2022-12-04T15:16:32.043Z,-5.47
2022-12-04T15:17:36.118Z,-5.47
2022-12-04T15:18:40.028Z,-5.46
2022-12-04T15:19:44.375Z,-5.48
2022-12-04T15:20:56.734Z,-5.49
2022-12-04T15:22:00.953Z,-5.48
2022-12-04T15:23:05.133Z,-5.51
2022-12-04T15:24:21.538Z,-5.51
2022-12-04T15:45:06.599Z,-5.88
2022-12-04T15:46:15.571Z,-5.88
2022-12-04T15:47:25.301Z,-5.85
2022-12-04T15:48:32.539Z,-5.84
2022-12-04T15:49:36.689Z,-5.86
2022-12-04T15:50:42.852Z,-5.83
2022-12-04T15:51:48.228Z,-5.83
2022-12-04T15:53:03.964Z,-5.84
2022-12-04T15:54:16.539Z,-5.84
2022-12-04T15:55:23.146Z,-5.86
2022-12-04T15:56:27.368Z,-5.82
2022-12-04T15:57:42.935Z,-5.87
2022-12-04T15:58:59.001Z,-5.87
2022-12-04T16:00:06.205Z,-5.86
2022-12-04T16:01:12.735Z,-5.89
2022-12-04T16:03:50.238Z,-5.90
2022-12-04T16:04:54.303Z,-5.89
2022-12-04T16:06:07.257Z,-5.93
2022-12-04T16:07:29.334Z,-5.92
2022-12-04T16:08:36.725Z,-5.90
2022-12-04T16:09:43.763Z,-5.89
2022-12-04T16:10:59.184Z,-5.89
2022-12-04T16:12:06.439Z,-5.88
2022-12-04T16:13:13.516Z,-5.92
2022-12-04T16:14:19.005Z,-5.91
2022-12-04T16:15:24.985Z,-5.91
2022-12-04T16:16:29.623Z,-5.91
2022-12-04T16:17:34.985Z,-5.90
2022-12-04T16:18:40.531Z,-5.90
2022-12-04T16:19:44.569Z,-5.91
2022-12-04T16:20:49.061Z,-5.93
2022-12-04T16:21:53.443Z,-5.90
2022-12-04T16:22:57.506Z,-5.93
2022-12-04T16:24:06.408Z,-5.92
2022-12-04T16:25:13.976Z,-5.93
2022-12-04T16:26:20.230Z,-5.94
2022-12-04T16:27:24.901Z,-5.96
2022-12-04T16:28:30.053Z,-5.95
2022-12-04T16:29:35.722Z,-5.93
2022-12-04T16:30:40.209Z,-5.95
2022-12-04T16:31:44.479Z,-5.95
2022-12-04T16:32:48.529Z,-5.96
2022-12-04T16:33:52.796Z,-5.98
2022-12-04T16:34:57.036Z,-6.00
2022-12-04T16:36:05.181Z,-5.97
2022-12-04T16:37:18.010Z,-5.98
2022-12-04T16:38:22.571Z,-6.01
2022-12-04T16:39:26.540Z,-6.00
2022-12-04T16:40:30.678Z,-6.05
2022-12-04T16:41:35.154Z,-6.04
2022-12-04T16:42:40.061Z,-6.09
2022-12-04T16:43:44.407Z,-6.07
2022-12-04T16:44:48.669Z,-6.08
2022-12-04T16:45:55.134Z,-6.06
2022-12-04T16:46:59.161Z,-6.07
2022-12-04T16:48:03.357Z,-6.08
2022-12-04T16:49:07.847Z,-6.10
2022-12-04T16:50:12.602Z,-6.09
2022-12-04T16:51:19.130Z,-6.10
2022-12-04T16:52:23.059Z,-6.08
2022-12-04T16:53:27.108Z,-6.08
2022-12-04T16:54:31.128Z,-6.08
2022-12-04T16:55:37.919Z,-6.11
2022-12-04T16:56:41.936Z,-6.10
2022-12-04T16:57:46.143Z,-6.09
2022-12-04T16:58:50.758Z,-6.12
2022-12-04T16:59:55.430Z,-6.15
2022-12-04T17:01:03.811Z,-6.11
2022-12-04T17:02:10.944Z,-6.11
2022-12-04T17:03:26.978Z,-6.12
2022-12-04T17:04:31.096Z,-6.13
2022-12-04T17:05:35.151Z,-6.13
2022-12-04T17:06:39.527Z,-6.15
2022-12-04T17:07:43.688Z,-6.15
2022-12-04T17:08:47.772Z,-6.12
2022-12-04T17:09:51.774Z,-6.11
2022-12-04T17:10:56.167Z,-6.14
2022-12-04T17:12:01.784Z,-6.15
2022-12-04T17:13:05.849Z,-6.15
2022-12-04T17:14:11.060Z,-6.16
2022-12-04T17:15:15.667Z,-6.16
2022-12-04T17:16:20.274Z,-6.14
2022-12-04T17:17:24.354Z,-6.14
2022-12-04T17:18:28.436Z,-6.14
2022-12-04T17:19:32.413Z,-6.13
2022-12-04T17:20:38.257Z,-6.10
2022-12-04T17:21:42.465Z,-6.10
2022-12-04T17:22:46.493Z,-6.10
2022-12-04T17:23:51.829Z,-6.12
2022-12-04T17:24:56.482Z,-6.10
2022-12-04T17:26:05.634Z,-6.10
2022-12-04T17:27:12.011Z,-6.12
2022-12-04T17:28:16.418Z,-6.11
2022-12-04T17:29:20.733Z,-6.14
2022-12-04T17:30:25.006Z,-6.12
2022-12-04T17:31:29.728Z,-6.13
2022-12-04T17:32:34.781Z,-6.14
2022-12-04T17:33:41.663Z,-6.13
2022-12-04T17:34:47.578Z,-6.15
2022-12-04T17:35:53.272Z,-6.17
2022-12-04T17:36:57.396Z,-6.16
2022-12-04T17:38:05.865Z,-6.14
2022-12-04T17:39:07.037Z,-6.14
2022-12-04T17:40:12.517Z,-6.15
2022-12-04T17:41:19.971Z,-6.15
2022-12-04T17:42:24.081Z,-6.13
2022-12-04T17:43:30.288Z,-6.12
2022-12-04T17:44:34.384Z,-6.14
2022-12-04T17:45:40.834Z,-6.14
2022-12-04T17:46:45.017Z,-6.14
2022-12-04T17:47:49.222Z,-6.14
2022-12-04T17:48:54.847Z,-6.17
2022-12-04T17:50:00.370Z,-6.16
2022-12-04T17:51:13.222Z,-6.15
2022-12-04T17:52:17.544Z,-6.18
2022-12-04T17:53:26.134Z,-6.19
2022-12-04T17:54:30.474Z,-6.18
2022-12-04T17:55:37.386Z,-6.19
2022-12-04T17:56:47.431Z,-6.20
2022-12-04T17:57:47.262Z,-6.25
2022-12-04T17:58:51.962Z,-6.25
2022-12-04T17:59:57.118Z,-6.20
2022-12-04T18:01:19.216Z,-6.22
2022-12-04T18:02:25.106Z,-6.22
2022-12-04T18:03:29.480Z,-6.27
2022-12-04T18:04:35.254Z,-6.25
2022-12-04T18:05:39.330Z,-6.26
2022-12-04T18:06:44.250Z,-6.25
2022-12-04T18:07:48.420Z,-6.25
2022-12-04T18:08:53.482Z,-6.27
2022-12-04T18:09:57.825Z,-6.20
2022-12-04T18:11:04.799Z,-6.20
2022-12-04T18:12:08.927Z,-6.21
2022-12-04T18:13:13.047Z,-6.21
2022-12-04T18:14:20.021Z,-6.21
2022-12-04T18:15:24.134Z,-6.20
2022-12-04T18:16:30.862Z,-6.21
2022-12-04T18:17:35.017Z,-6.23
2022-12-04T18:18:39.714Z,-6.21
2022-12-04T18:19:43.840Z,-6.24
2022-12-04T18:20:48.067Z,-6.18
2022-12-04T18:21:55.226Z,-6.19
2022-12-04T18:22:59.147Z,-6.15
2022-12-04T18:24:04.787Z,-6.17
2022-12-04T18:25:11.247Z,-6.16
2022-12-04T18:26:18.452Z,-6.21
2022-12-04T18:27:23.999Z,-6.19
2022-12-04T18:28:32.695Z,-6.21
2022-12-04T18:29:37.056Z,-6.16
2022-12-04T18:30:41.269Z,-6.16
2022-12-04T18:31:45.480Z,-6.20
2022-12-04T18:32:49.627Z,-6.21
2022-12-04T18:33:54.459Z,-6.23
2022-12-04T18:34:58.395Z,-9.72
2022-12-04T18:36:03.080Z,-6.25
2022-12-04T18:37:07.104Z,-6.19
2022-12-04T18:38:11.194Z,-6.21
2022-12-04T18:39:18.262Z,-6.21
2022-12-04T18:40:22.290Z,-6.24
2022-12-04T18:41:27.139Z,-6.25
2022-12-04T18:42:31.790Z,-6.21
2022-12-04T18:43:37.411Z,-6.25
2022-12-04T18:44:41.432Z,-6.22
2022-12-04T18:45:45.983Z,-6.22
2022-12-04T18:46:51.698Z,-6.27
2022-12-04T18:47:55.663Z,-6.27
2022-12-04T18:49:00.226Z,-6.30
2022-12-04T18:50:04.501Z,-6.30
2022-12-04T18:51:28.092Z,-6.30
2022-12-04T18:52:37.060Z,-6.30
2022-12-04T18:53:42.215Z,-6.29
2022-12-04T18:54:46.324Z,-6.31
2022-12-04T18:55:50.450Z,-6.34
2022-12-04T18:56:56.080Z,-6.36
2022-12-04T18:58:01.823Z,-6.36
2022-12-04T18:59:14.953Z,-6.36
2022-12-04T19:00:19.540Z,-6.37
2022-12-04T19:01:23.724Z,-6.39
2022-12-04T22:37:11.083Z,-8.15
2022-12-04T22:38:14.958Z,-8.08
2022-12-04T22:39:19.032Z,-8.02
2022-12-04T22:40:23.008Z,-8.03
2022-12-04T22:41:27.556Z,-8.03
2022-12-04T22:42:31.660Z,-8.01
2022-12-04T22:43:40.747Z,-8.01
2022-12-04T22:44:41.497Z,-8.01
2022-12-04T22:45:45.481Z,-8.03
2022-12-04T22:46:49.576Z,-8.03
2022-12-04T22:47:53.608Z,-8.02
2022-12-04T22:48:59.396Z,-8.00
2022-12-04T22:50:04.381Z,-8.04
2022-12-04T22:51:20.196Z,-7.99
2022-12-04T22:52:24.309Z,-7.99
2022-12-04T22:53:29.076Z,-8.02
2022-12-04T22:54:33.179Z,-8.01
2022-12-04T22:55:37.218Z,-8.03
2022-12-04T22:56:41.861Z,-8.04
2022-12-04T22:57:45.880Z,-8.06
2022-12-04T22:58:49.875Z,-8.06
2022-12-04T22:59:55.707Z,-8.05
2022-12-04T23:00:59.994Z,-8.01
2022-12-04T23:02:03.875Z,-8.02
2022-12-04T23:03:07.868Z,-8.03
2022-12-04T23:04:11.884Z,-8.03
2022-12-04T23:05:16.002Z,-8.05
2022-12-04T23:06:21.860Z,-8.06
2022-12-04T23:07:25.831Z,-8.07
2022-12-04T23:08:30.149Z,-8.05
2022-12-04T23:09:34.472Z,-8.07
2022-12-04T23:10:39.364Z,-8.09
2022-12-04T23:11:44.217Z,-8.09
2022-12-04T23:12:48.223Z,-8.09
2022-12-04T23:13:54.526Z,-8.09
2022-12-04T23:14:59.428Z,-8.14
2022-12-04T23:16:09.306Z,-8.14
2022-12-04T23:17:09.655Z,-8.15
2022-12-04T23:18:13.528Z,-8.15
2022-12-04T23:19:19.252Z,-8.14
2022-12-04T23:20:23.200Z,-8.17
2022-12-04T23:21:28.871Z,-8.18
2022-12-04T23:22:32.794Z,-8.15
2022-12-04T23:23:38.944Z,-8.15
2022-12-04T23:24:42.956Z,-8.15
2022-12-04T23:25:46.895Z,-8.14
2022-12-04T23:26:50.921Z,-8.16
2022-12-04T23:27:55.043Z,-8.13
2022-12-04T23:28:59.496Z,-8.15
2022-12-04T23:30:03.676Z,-8.16
2022-12-04T23:31:07.931Z,-8.17
2022-12-04T23:32:11.915Z,-8.14
2022-12-04T23:33:15.865Z,-8.16
2022-12-04T23:34:19.745Z,-8.18
2022-12-04T23:35:23.789Z,-8.17
2022-12-04T23:36:28.890Z,-8.16
2022-12-04T23:37:32.973Z,-8.15
2022-12-04T23:38:38.715Z,-8.16
2022-12-04T23:39:42.679Z,-8.19
2022-12-04T23:40:46.746Z,-8.18
2022-12-04T23:41:50.585Z,-8.19
2022-12-04T23:42:54.628Z,-8.17
2022-12-04T23:43:58.924Z,-8.18
2022-12-04T23:45:02.885Z,-8.18
2022-12-04T23:46:11.475Z,-8.16
2022-12-04T23:47:15.100Z,-8.16
2022-12-04T23:48:19.009Z,-8.18
2022-12-04T23:49:22.966Z,-8.17
2022-12-04T23:50:27.165Z,-8.21
2022-12-04T23:51:31.267Z,-8.20
2022-12-04T23:52:35.157Z,-8.18
2022-12-04T23:53:39.246Z,-8.17
2022-12-04T23:54:43.207Z,-8.17
2022-12-04T23:55:58.606Z,-8.17
2022-12-04T23:57:02.828Z,-8.19
2022-12-04T23:58:06.941Z,-8.22
2022-12-04T23:59:10.910Z,-8.25
